createdAt,value
2018-02-09T00:00:50.358Z,99.99
2018-02-09T00:01:50.075Z,99.99
2018-02-09T00:02:50.302Z,99.99
2018-02-09T00:03:50.018Z,99.99
2018-02-09T00:04:50.260Z,99.99
2018-02-09T00:05:49.965Z,99.99
2018-02-09T00:06:50.244Z,99.99
2018-02-09T00:07:50.176Z,99.99
2018-02-09T00:08:50.144Z,99.99
2018-02-09T00:09:49.858Z,99.99
2018-02-09T00:10:50.099Z,99.99
2018-02-09T00:11:50.069Z,99.99
2018-02-09T00:12:50.043Z,99.99
2018-02-09T00:13:49.748Z,99.99
2018-02-09T00:14:49.991Z,99.99
2018-02-09T00:15:49.698Z,99.99
2018-02-09T00:16:49.672Z,99.99
2018-02-09T00:17:49.692Z,99.99
2018-02-09T00:18:49.629Z,99.99
2018-02-09T00:19:49.859Z,99.99
2018-02-09T00:20:49.566Z,99.99
2018-02-09T00:21:49.803Z,99.99
2018-02-09T00:22:49.780Z,99.99
2018-02-09T00:23:49.754Z,99.99
2018-02-09T00:24:49.457Z,99.99
2018-02-09T00:25:49.694Z,99.99
2018-02-09T00:26:49.412Z,99.99
2018-02-09T00:27:49.644Z,99.99
2018-02-09T00:28:49.352Z,99.99
2018-02-09T00:29:49.590Z,99.99
2018-02-09T00:30:49.572Z,99.99
2018-02-09T00:31:49.278Z,99.99
2018-02-09T00:32:49.561Z,99.99
2018-02-09T00:33:49.490Z,99.99
2018-02-09T00:34:49.204Z,99.99
2018-02-09T00:35:49.432Z,99.99
2018-02-09T00:36:49.142Z,99.99
2018-02-09T00:37:49.118Z,99.99
2018-02-09T00:38:49.355Z,99.99
2018-02-09T00:39:49.067Z,99.99
2018-02-09T00:40:49.308Z,99.99
2018-02-09T00:41:49.276Z,99.99
2018-02-09T00:42:49.299Z,99.99
2018-02-09T00:43:48.960Z,99.99
2018-02-09T00:44:48.935Z,99.99
2018-02-09T00:45:48.905Z,99.99
2018-02-09T00:46:48.881Z,99.99
2018-02-09T00:47:48.854Z,99.99
2018-02-09T00:48:48.831Z,99.99
2018-02-09T00:49:49.069Z,99.99
2018-02-09T00:50:49.036Z,99.99
2018-02-09T00:51:49.008Z,99.99
2018-02-09T00:52:48.986Z,99.99
2018-02-09T00:53:48.696Z,99.99
2018-02-09T00:54:48.932Z,99.99
2018-02-09T00:55:48.915Z,99.99
2018-02-09T00:56:48.617Z,99.99
2018-02-09T00:57:48.586Z,99.99
2018-02-09T00:58:48.830Z,99.99
2018-02-09T00:59:48.542Z,99.99
2018-02-09T01:00:48.772Z,99.99
2018-02-09T01:01:48.751Z,99.99
2018-02-09T01:02:48.460Z,99.99
2018-02-09T01:03:48.431Z,99.99
2018-02-09T01:04:48.668Z,99.99
2018-02-09T01:05:48.379Z,99.99
2018-02-09T01:06:48.623Z,99.99
2018-02-09T01:07:48.593Z,99.99
2018-02-09T01:08:48.350Z,99.99
2018-02-09T01:09:48.478Z,99.99
2018-02-09T01:10:48.516Z,99.99
2018-02-09T01:11:48.484Z,99.99
2018-02-09T01:12:48.459Z,99.99
2018-02-09T01:13:48.167Z,99.99
2018-02-09T01:14:48.417Z,99.99
2018-02-09T01:15:48.383Z,99.99
2018-02-09T01:16:48.355Z,99.99
2018-02-09T01:17:48.325Z,99.99
2018-02-09T01:18:48.034Z,99.99
2018-02-09T01:19:48.274Z,99.99
2018-02-09T01:20:48.244Z,99.99
2018-02-09T01:21:48.223Z,99.99
2018-02-09T01:22:48.209Z,99.99
2018-02-09T01:23:47.906Z,99.99
2018-02-09T01:24:48.136Z,99.99
2018-02-09T01:25:47.850Z,99.99
2018-02-09T01:26:48.086Z,99.99
2018-02-09T01:27:47.798Z,99.99
2018-02-09T01:28:48.035Z,99.99
2018-02-09T01:29:47.745Z,99.99
2018-02-09T01:30:47.981Z,99.99
2018-02-09T01:31:47.695Z,99.99
2018-02-09T01:32:47.668Z,99.99
2018-02-09T01:33:47.908Z,99.99
2018-02-09T01:34:47.880Z,99.99
2018-02-09T01:35:47.587Z,99.99
2018-02-09T01:36:47.831Z,99.99
2018-02-09T01:37:47.532Z,99.99
2018-02-09T01:38:47.510Z,99.99
2018-02-09T01:39:47.483Z,99.99
2018-02-09T01:40:47.722Z,99.99
2018-02-09T01:41:47.693Z,99.99
2018-02-09T01:42:47.665Z,99.99
2018-02-09T01:43:47.644Z,99.99
2018-02-09T01:44:47.612Z,99.99
2018-02-09T01:45:47.323Z,99.99
2018-02-09T01:46:47.294Z,99.99
2018-02-09T01:47:47.274Z,99.99
2018-02-09T01:48:47.510Z,99.99
2018-02-09T01:49:47.219Z,99.99
2018-02-09T01:50:47.461Z,99.99
2018-02-09T01:51:47.429Z,99.99
2018-02-09T01:52:47.140Z,99.99
2018-02-09T01:53:47.375Z,99.99
2018-02-09T01:54:47.349Z,99.99
2018-02-09T01:55:47.058Z,99.99
2018-02-09T01:56:47.034Z,99.99
2018-02-09T01:57:47.006Z,99.99
2018-02-09T01:58:47.246Z,99.99
2018-02-09T01:59:46.954Z,99.99
2018-02-09T02:00:46.930Z,99.99
2018-02-09T02:01:47.165Z,99.99
2018-02-09T02:02:47.137Z,99.99
2018-02-09T02:03:46.848Z,99.99
2018-02-09T02:04:46.823Z,99.99
2018-02-09T02:05:46.793Z,99.99
2018-02-09T02:06:46.767Z,99.99
2018-02-09T02:07:47.011Z,99.99
2018-02-09T02:08:46.985Z,99.99
2018-02-09T02:09:47.003Z,99.99
2018-02-09T02:10:46.662Z,99.99
2018-02-09T02:11:46.900Z,99.99
2018-02-09T02:12:46.612Z,99.99
2018-02-09T02:13:46.584Z,99.99
2018-02-09T02:14:46.556Z,99.99
2018-02-09T02:15:46.792Z,99.99
2018-02-09T02:16:46.774Z,99.99
2018-02-09T02:17:46.743Z,99.99
2018-02-09T02:18:46.450Z,99.99
2018-02-09T02:19:46.689Z,99.99
2018-02-09T02:20:46.397Z,99.99
2018-02-09T02:21:46.374Z,99.99
2018-02-09T02:22:46.613Z,99.99
2018-02-09T02:23:46.589Z,99.99
2018-02-09T02:24:46.341Z,99.99
2018-02-09T02:25:46.531Z,99.99
2018-02-09T02:26:46.505Z,99.99
2018-02-09T02:27:46.220Z,99.99
2018-02-09T02:28:46.452Z,99.99
2018-02-09T02:29:46.158Z,99.99
2018-02-09T02:30:46.135Z,99.99
2018-02-09T02:31:46.373Z,99.99
2018-02-09T02:32:46.343Z,99.99
2018-02-09T02:33:46.319Z,99.99
2018-02-09T02:34:46.031Z,99.99
2018-02-09T02:35:46.269Z,99.99
2018-02-09T02:36:46.237Z,99.99
2018-02-09T02:37:45.948Z,99.99
2018-02-09T02:38:46.189Z,99.99
2018-02-09T02:39:46.173Z,99.99
2018-02-09T02:40:46.136Z,99.99
2018-02-09T02:41:46.106Z,99.99
2018-02-09T02:42:46.079Z,99.99
2018-02-09T02:43:46.054Z,99.99
2018-02-09T02:44:46.031Z,99.99
2018-02-09T02:45:46.029Z,99.99
2018-02-09T02:46:45.984Z,99.99
2018-02-09T02:47:45.947Z,99.99
2018-02-09T02:48:45.658Z,99.99
2018-02-09T02:49:45.908Z,99.99
2018-02-09T02:50:45.605Z,99.99
2018-02-09T02:51:45.847Z,99.99
2018-02-09T02:52:45.818Z,99.99
2018-02-09T02:53:45.788Z,99.99
2018-02-09T02:54:45.763Z,99.99
2018-02-09T02:55:45.740Z,99.99
2018-02-09T02:56:45.716Z,99.99
2018-02-09T02:57:45.683Z,99.99
2018-02-09T02:58:45.654Z,99.99
2018-02-09T02:59:45.635Z,99.99
2018-02-09T03:00:45.344Z,99.99
2018-02-09T03:01:45.574Z,99.99
2018-02-09T03:02:45.552Z,99.99
2018-02-09T03:03:45.260Z,99.99
2018-02-09T03:04:45.234Z,99.99
2018-02-09T03:05:45.206Z,99.99
2018-02-09T03:06:45.182Z,99.99
2018-02-09T03:07:45.154Z,99.99
2018-02-09T03:08:45.128Z,99.99
2018-02-09T03:09:45.303Z,99.99
2018-02-09T03:10:45.336Z,99.99
2018-02-09T03:11:45.310Z,99.99
2018-02-09T03:12:45.022Z,99.99
2018-02-09T03:13:45.255Z,99.99
2018-02-09T03:14:45.232Z,99.99
2018-02-09T03:15:45.202Z,99.99
2018-02-09T03:16:44.911Z,99.99
2018-02-09T03:17:45.148Z,99.99
2018-02-09T03:18:44.862Z,99.99
2018-02-09T03:19:44.832Z,99.99
2018-02-09T03:20:45.070Z,99.99
2018-02-09T03:21:45.041Z,99.99
2018-02-09T03:22:45.015Z,99.99
2018-02-09T03:23:44.987Z,99.99
2018-02-09T03:24:44.967Z,99.99
2018-02-09T03:25:44.674Z,99.99
2018-02-09T03:26:44.911Z,99.99
2018-02-09T03:27:44.880Z,99.99
2018-02-09T03:28:44.859Z,99.99
2018-02-09T03:29:45.028Z,99.99
2018-02-09T03:30:44.549Z,99.99
2018-02-09T03:31:44.510Z,99.99
2018-02-09T03:32:44.750Z,99.99
2018-02-09T03:33:44.461Z,99.99
2018-02-09T03:34:44.430Z,99.99
2018-02-09T03:35:44.671Z,99.99
2018-02-09T03:36:44.377Z,99.99
2018-02-09T03:37:44.348Z,99.99
2018-02-09T03:38:44.322Z,99.99
2018-02-09T03:39:44.300Z,99.99
2018-02-09T03:40:44.268Z,99.99
2018-02-09T03:41:44.505Z,99.99
2018-02-09T03:42:44.483Z,99.99
2018-02-09T03:43:44.191Z,99.99
2018-02-09T03:44:44.167Z,99.99
2018-02-09T03:45:44.141Z,99.99
2018-02-09T03:46:44.110Z,99.99
2018-02-09T03:47:44.345Z,99.99
2018-02-09T03:48:44.325Z,99.99
2018-02-09T03:49:44.297Z,99.99
2018-02-09T03:50:44.056Z,99.99
2018-02-09T03:51:43.981Z,99.99
2018-02-09T03:52:44.211Z,99.99
2018-02-09T03:53:44.183Z,99.99
2018-02-09T03:54:44.167Z,99.99
2018-02-09T03:55:43.872Z,99.99
2018-02-09T03:56:44.105Z,99.99
2018-02-09T03:57:43.826Z,99.99
2018-02-09T03:58:44.051Z,99.99
2018-02-09T03:59:44.023Z,99.99
2018-02-09T04:00:43.733Z,99.99
2018-02-09T04:01:43.970Z,99.99
2018-02-09T04:02:43.945Z,99.99
2018-02-09T04:03:43.917Z,99.99
2018-02-09T04:04:43.628Z,99.99
2018-02-09T04:05:43.916Z,99.99
2018-02-09T04:06:43.577Z,99.99
2018-02-09T04:07:43.549Z,99.99
2018-02-09T04:08:43.527Z,99.99
2018-02-09T04:09:43.492Z,99.99
2018-02-09T04:10:43.731Z,99.99
2018-02-09T04:11:43.443Z,99.99
2018-02-09T04:12:43.677Z,99.99
2018-02-09T04:13:43.653Z,99.99
2018-02-09T04:14:43.631Z,99.99
2018-02-09T04:15:43.604Z,99.99
2018-02-09T04:16:43.565Z,99.99
2018-02-09T04:17:43.276Z,99.99
2018-02-09T04:18:43.514Z,99.99
2018-02-09T04:19:43.486Z,99.99
2018-02-09T04:20:43.510Z,99.99
2018-02-09T04:21:43.172Z,99.99
2018-02-09T04:22:43.410Z,99.99
2018-02-09T04:23:43.379Z,99.99
2018-02-09T04:24:43.090Z,99.99
2018-02-09T04:25:43.063Z,99.99
2018-02-09T04:26:43.040Z,99.99
2018-02-09T04:27:43.011Z,99.99
2018-02-09T04:28:43.244Z,99.99
2018-02-09T04:29:43.222Z,99.99
2018-02-09T04:30:42.927Z,99.99
2018-02-09T04:31:42.903Z,99.99
2018-02-09T04:32:43.143Z,99.99
2018-02-09T04:33:43.106Z,99.99
2018-02-09T04:34:42.820Z,99.99
2018-02-09T04:35:42.795Z,99.99
2018-02-09T04:36:43.036Z,99.99
2018-02-09T04:37:42.769Z,99.99
2018-02-09T04:38:42.978Z,99.99
2018-02-09T04:39:42.697Z,99.99
2018-02-09T04:40:42.658Z,99.99
2018-02-09T04:41:42.894Z,99.99
2018-02-09T04:42:42.868Z,99.99
2018-02-09T04:43:42.842Z,99.99
2018-02-09T04:44:42.555Z,99.99
2018-02-09T04:45:42.525Z,99.99
2018-02-09T04:46:42.497Z,99.99
2018-02-09T04:47:42.787Z,99.99
2018-02-09T04:48:42.706Z,99.99
2018-02-09T04:49:42.687Z,99.99
2018-02-09T04:50:42.395Z,99.99
2018-02-09T04:51:42.625Z,99.99
2018-02-09T04:52:42.333Z,99.99
2018-02-09T04:53:42.574Z,99.99
2018-02-09T04:54:42.285Z,99.99
2018-02-09T04:55:42.257Z,99.99
2018-02-09T04:56:42.231Z,99.99
2018-02-09T04:57:42.207Z,99.99
2018-02-09T04:58:42.442Z,99.99
2018-02-09T04:59:42.413Z,99.99
2018-02-09T05:00:42.121Z,99.99
2018-02-09T05:01:42.361Z,99.99
2018-02-09T05:02:42.074Z,99.99
2018-02-09T05:03:42.306Z,99.99
2018-02-09T05:04:42.031Z,99.99
2018-02-09T05:05:42.319Z,99.99
2018-02-09T05:06:42.228Z,99.99
2018-02-09T05:07:41.940Z,99.99
2018-02-09T05:08:41.912Z,99.99
2018-02-09T05:09:42.087Z,99.99
2018-02-09T05:10:42.120Z,99.99
2018-02-09T05:11:42.144Z,99.99
2018-02-09T05:12:41.808Z,99.99
2018-02-09T05:13:42.044Z,99.99
2018-02-09T05:14:42.071Z,99.99
2018-02-09T05:15:41.989Z,99.99
2018-02-09T05:16:41.702Z,99.99
2018-02-09T05:17:41.940Z,99.99
2018-02-09T05:18:41.651Z,99.99
2018-02-09T05:19:41.885Z,99.99
2018-02-09T05:20:41.862Z,99.99
2018-02-09T05:21:41.620Z,99.99
2018-02-09T05:22:41.812Z,99.99
2018-02-09T05:23:41.782Z,99.99
2018-02-09T05:24:41.755Z,99.99
2018-02-09T05:25:41.728Z,99.99
2018-02-09T05:26:41.444Z,99.99
2018-02-09T05:27:41.415Z,99.99
2018-02-09T05:28:41.654Z,99.99
2018-02-09T05:29:41.625Z,99.99
2018-02-09T05:30:41.602Z,99.99
2018-02-09T05:31:41.624Z,99.99
2018-02-09T05:32:41.550Z,99.99
2018-02-09T05:33:41.522Z,99.99
2018-02-09T05:34:41.497Z,99.99
2018-02-09T05:35:41.473Z,99.99
2018-02-09T05:36:41.444Z,99.99
2018-02-09T05:37:41.162Z,99.99
2018-02-09T05:38:41.129Z,99.99
2018-02-09T05:39:41.101Z,99.99
2018-02-09T05:40:41.340Z,99.99
2018-02-09T05:41:41.051Z,99.99
2018-02-09T05:42:41.028Z,99.99
2018-02-09T05:43:40.996Z,99.99
2018-02-09T05:44:41.239Z,99.99
2018-02-09T05:45:41.213Z,99.99
2018-02-09T05:46:40.921Z,99.99
2018-02-09T05:47:40.897Z,99.99
2018-02-09T05:48:41.133Z,99.99
2018-02-09T05:49:41.110Z,99.99
2018-02-09T05:50:40.818Z,99.99
2018-02-09T05:51:40.796Z,99.99
2018-02-09T05:52:40.771Z,99.99
2018-02-09T05:53:41.001Z,99.99
2018-02-09T05:54:40.975Z,99.99
2018-02-09T05:55:40.688Z,99.99
2018-02-09T05:56:40.663Z,99.99
2018-02-09T05:57:40.902Z,99.99
2018-02-09T05:58:40.877Z,99.99
2018-02-09T05:59:40.847Z,99.99
2018-02-09T06:00:40.557Z,99.99
2018-02-09T06:01:40.796Z,99.99
2018-02-09T06:02:40.771Z,99.99
2018-02-09T06:03:40.748Z,99.99
2018-02-09T06:04:40.714Z,99.99
2018-02-09T06:05:40.725Z,99.99
2018-02-09T06:06:40.403Z,99.99
2018-02-09T06:07:40.376Z,99.99
2018-02-09T06:08:40.613Z,99.99
2018-02-09T06:09:40.584Z,99.99
2018-02-09T06:10:40.296Z,99.99
2018-02-09T06:11:40.539Z,99.99
2018-02-09T06:12:40.515Z,99.99
2018-02-09T06:13:40.229Z,99.99
2018-02-09T06:14:40.192Z,99.99
2018-02-09T06:15:40.427Z,99.99
2018-02-09T06:16:40.136Z,99.99
2018-02-09T06:17:40.112Z,99.99
2018-02-09T06:18:40.090Z,99.99
2018-02-09T06:19:40.324Z,99.99
2018-02-09T06:20:40.298Z,99.99
2018-02-09T06:21:40.272Z,99.99
2018-02-09T06:22:40.031Z,99.99
2018-02-09T06:23:40.223Z,99.99
2018-02-09T06:24:40.204Z,99.99
2018-02-09T06:25:40.166Z,99.99
2018-02-09T06:26:40.139Z,99.99
2018-02-09T06:27:40.115Z,99.99
2018-02-09T06:28:40.086Z,99.99
2018-02-09T06:29:39.802Z,99.99
2018-02-09T06:30:40.037Z,99.99
2018-02-09T06:31:39.749Z,99.99
2018-02-09T06:32:40.036Z,99.99
2018-02-09T06:33:39.698Z,99.99
2018-02-09T06:34:39.665Z,99.99
2018-02-09T06:35:39.904Z,99.99
2018-02-09T06:36:39.618Z,99.99
2018-02-09T06:37:39.587Z,99.99
2018-02-09T06:38:39.856Z,99.99
2018-02-09T06:39:39.534Z,99.99
2018-02-09T06:40:39.514Z,99.99
2018-02-09T06:41:39.490Z,99.99
2018-02-09T06:42:39.770Z,99.99
2018-02-09T06:43:39.690Z,99.99
2018-02-09T06:44:39.667Z,99.99
2018-02-09T06:45:39.641Z,99.99
2018-02-09T06:46:39.613Z,99.99
2018-02-09T06:47:39.326Z,99.99
2018-02-09T06:48:39.559Z,99.99
2018-02-09T06:49:39.552Z,99.99
2018-02-09T06:50:39.246Z,99.99
2018-02-09T06:51:39.478Z,99.99
2018-02-09T06:52:39.203Z,99.99
2018-02-09T06:53:39.167Z,99.99
2018-02-09T06:54:39.407Z,99.99
2018-02-09T06:55:39.376Z,99.99
2018-02-09T06:56:39.087Z,99.99
2018-02-09T06:57:39.335Z,99.99
2018-02-09T06:58:39.298Z,99.99
2018-02-09T06:59:39.274Z,99.99
2018-02-09T07:00:39.248Z,99.99
2018-02-09T07:01:38.956Z,99.99
2018-02-09T07:02:38.928Z,99.99
2018-02-09T07:03:38.904Z,99.99
2018-02-09T07:04:38.875Z,99.99
2018-02-09T07:05:38.848Z,99.99
2018-02-09T07:06:39.087Z,99.99
2018-02-09T07:07:39.066Z,99.99
2018-02-09T07:08:38.781Z,99.99
2018-02-09T07:09:38.945Z,99.99
2018-02-09T07:10:38.980Z,99.99
2018-02-09T07:11:38.952Z,99.99
2018-02-09T07:12:38.668Z,99.99
2018-02-09T07:13:38.637Z,99.99
2018-02-09T07:14:38.611Z,99.99
2018-02-09T07:15:38.850Z,99.99
2018-02-09T07:16:38.830Z,99.99
2018-02-09T07:17:38.796Z,99.99
2018-02-09T07:18:38.772Z,99.99
2018-02-09T07:19:38.747Z,99.99
2018-02-09T07:20:38.848Z,99.99
2018-02-09T07:21:38.709Z,99.99
2018-02-09T07:22:38.401Z,99.99
2018-02-09T07:23:38.379Z,99.99
2018-02-09T07:24:38.611Z,99.99
2018-02-09T07:25:38.331Z,99.99
2018-02-09T07:26:38.304Z,99.99
2018-02-09T07:27:38.644Z,99.99
2018-02-09T07:28:38.561Z,99.99
2018-02-09T07:29:38.220Z,99.99
2018-02-09T07:30:38.195Z,99.99
2018-02-09T07:31:38.176Z,99.99
2018-02-09T07:32:38.145Z,99.99
2018-02-09T07:33:38.118Z,99.99
2018-02-09T07:34:38.093Z,99.99
2018-02-09T07:35:38.065Z,99.99
2018-02-09T07:36:38.040Z,99.99
2018-02-09T07:37:38.277Z,99.99
2018-02-09T07:38:38.251Z,99.99
2018-02-09T07:39:38.221Z,99.99
2018-02-09T07:40:38.277Z,99.99
2018-02-09T07:41:37.924Z,99.99
2018-02-09T07:42:37.905Z,99.99
2018-02-09T07:43:37.856Z,99.99
2018-02-09T07:44:37.830Z,99.99
2018-02-09T07:45:38.122Z,99.99
2018-02-09T07:46:37.782Z,99.99
2018-02-09T07:47:37.753Z,99.99
2018-02-09T07:48:37.731Z,99.99
2018-02-09T07:49:37.967Z,99.99
2018-02-09T07:50:37.947Z,99.99
2018-02-09T07:51:37.652Z,99.99
2018-02-09T07:52:37.625Z,99.99
2018-02-09T07:53:37.601Z,99.99
2018-02-09T07:54:37.845Z,99.99
2018-02-09T07:55:37.813Z,99.99
2018-02-09T07:56:37.789Z,99.99
2018-02-09T07:57:37.761Z,99.99
2018-02-09T07:58:37.469Z,99.99
2018-02-09T07:59:37.445Z,99.99
2018-02-09T08:00:37.684Z,99.99
2018-02-09T08:01:37.655Z,99.99
2018-02-09T08:02:37.366Z,99.99
2018-02-09T08:03:37.602Z,99.99
2018-02-09T08:04:37.578Z,99.99
2018-02-09T08:05:37.551Z,99.99
2018-02-09T08:06:37.524Z,99.99
2018-02-09T08:07:37.510Z,99.99
2018-02-09T08:08:37.208Z,99.99
2018-02-09T08:09:37.450Z,99.99
2018-02-09T08:10:37.159Z,99.99
2018-02-09T08:11:37.132Z,99.99
2018-02-09T08:12:37.375Z,99.99
2018-02-09T08:13:37.084Z,99.99
2018-02-09T08:14:37.368Z,99.99
2018-02-09T08:15:37.033Z,99.99
2018-02-09T08:16:37.269Z,99.99
2018-02-09T08:17:36.977Z,99.99
2018-02-09T08:18:37.432Z,99.99
2018-02-09T08:19:36.930Z,99.99
2018-02-09T08:20:37.176Z,99.99
2018-02-09T08:21:37.140Z,99.99
2018-02-09T08:22:37.111Z,99.99
2018-02-09T08:23:36.826Z,99.99
2018-02-09T08:24:36.850Z,99.99
2018-02-09T08:25:37.037Z,99.99
2018-02-09T08:26:37.015Z,99.99
2018-02-09T08:27:36.724Z,99.99
2018-02-09T08:28:36.696Z,99.99
2018-02-09T08:29:36.935Z,99.99
2018-02-09T08:30:36.909Z,99.99
2018-02-09T08:31:36.618Z,99.99
2018-02-09T08:32:36.859Z,99.99
2018-02-09T08:33:36.833Z,99.99
2018-02-09T08:34:36.544Z,99.99
2018-02-09T08:35:36.519Z,99.99
2018-02-09T08:36:36.492Z,99.99
2018-02-09T08:37:36.728Z,99.99
2018-02-09T08:38:36.448Z,99.99
2018-02-09T08:39:36.736Z,99.99
2018-02-09T08:40:36.649Z,99.99
2018-02-09T08:41:36.627Z,99.99
2018-02-09T08:42:36.599Z,99.99
2018-02-09T08:43:36.611Z,99.99
2018-02-09T08:44:36.285Z,99.99
2018-02-09T08:45:36.523Z,99.99
2018-02-09T08:46:36.499Z,99.99
2018-02-09T08:47:36.477Z,99.99
2018-02-09T08:48:36.182Z,99.99
2018-02-09T08:49:36.485Z,99.99
2018-02-09T08:50:36.402Z,99.99
2018-02-09T08:51:36.377Z,99.99
2018-02-09T08:52:36.085Z,99.99
2018-02-09T08:53:36.324Z,99.99
2018-02-09T08:54:36.034Z,99.99
2018-02-09T08:55:36.271Z,99.99
2018-02-09T08:56:36.247Z,99.99
2018-02-09T08:57:35.959Z,99.99
2018-02-09T08:58:36.197Z,99.99
2018-02-09T08:59:35.907Z,99.99
2018-02-09T09:00:36.143Z,99.99
2018-02-09T09:01:35.858Z,99.99
2018-02-09T09:02:36.095Z,99.99
2018-02-09T09:03:35.808Z,99.99
2018-02-09T09:04:35.782Z,99.99
2018-02-09T09:05:36.018Z,99.99
2018-02-09T09:06:36.001Z,99.99
2018-02-09T09:07:35.707Z,99.99
2018-02-09T09:08:35.947Z,99.99
2018-02-09T09:09:35.923Z,99.99
2018-02-09T09:10:35.633Z,99.99
2018-02-09T09:11:35.873Z,99.99
2018-02-09T09:12:35.856Z,99.99
2018-02-09T09:13:35.564Z,99.99
2018-02-09T09:14:35.813Z,99.99
2018-02-09T09:15:35.779Z,99.99
2018-02-09T09:16:35.498Z,99.99
2018-02-09T09:17:35.471Z,99.99
2018-02-09T09:18:35.711Z,99.99
2018-02-09T09:19:35.426Z,99.99
2018-02-09T09:20:35.402Z,99.99
2018-02-09T09:21:35.643Z,99.99
2018-02-09T09:22:35.623Z,99.99
2018-02-09T09:23:35.598Z,99.99
2018-02-09T09:24:35.575Z,99.99
2018-02-09T09:25:35.556Z,99.99
2018-02-09T09:26:35.528Z,99.99
2018-02-09T09:27:35.506Z,99.99
2018-02-09T09:28:35.486Z,99.99
2018-02-09T09:29:35.203Z,99.99
2018-02-09T09:30:35.440Z,99.99
2018-02-09T09:31:35.420Z,99.99
2018-02-09T09:32:35.407Z,99.99
2018-02-09T09:33:35.110Z,99.99
2018-02-09T09:34:35.395Z,99.99
2018-02-09T09:35:35.386Z,99.99
2018-02-09T09:36:35.307Z,99.99
2018-02-09T09:37:35.288Z,99.99
2018-02-09T09:38:35.273Z,99.99
2018-02-09T09:39:35.251Z,99.99
2018-02-09T09:40:35.225Z,99.99
2018-02-09T09:41:35.204Z,99.99
2018-02-09T09:42:34.923Z,99.99
2018-02-09T09:43:34.904Z,99.99
2018-02-09T09:44:34.877Z,99.99
2018-02-09T09:45:35.115Z,99.99
2018-02-09T09:46:35.103Z,99.99
2018-02-09T09:47:35.075Z,99.99
2018-02-09T09:48:34.794Z,99.99
2018-02-09T09:49:34.778Z,99.99
2018-02-09T09:50:35.062Z,99.99
2018-02-09T09:51:34.991Z,99.99
2018-02-09T09:52:34.711Z,99.99
2018-02-09T09:53:34.688Z,99.99
2018-02-09T09:54:34.924Z,99.99
2018-02-09T09:55:34.903Z,99.99
2018-02-09T09:56:34.624Z,99.99
2018-02-09T09:57:34.859Z,99.99
2018-02-09T09:58:34.579Z,99.99
2018-02-09T09:59:34.821Z,99.99
2018-02-09T10:00:34.540Z,99.99
2018-02-09T10:01:34.517Z,99.99
2018-02-09T10:02:34.492Z,99.99
2018-02-09T10:03:34.735Z,99.99
2018-02-09T10:04:34.458Z,99.99
2018-02-09T10:05:34.694Z,99.99
2018-02-09T10:06:34.415Z,99.99
2018-02-09T10:07:34.654Z,99.99
2018-02-09T10:08:34.636Z,99.99
2018-02-09T10:09:34.346Z,99.99
2018-02-09T10:10:34.586Z,99.99
2018-02-09T10:11:34.306Z,99.99
2018-02-09T10:12:34.551Z,99.99
2018-02-09T10:13:34.537Z,99.99
2018-02-09T10:14:34.243Z,99.99
2018-02-09T10:15:34.218Z,99.99
2018-02-09T10:16:34.464Z,99.99
2018-02-09T10:17:34.646Z,99.99
2018-02-09T10:18:34.421Z,99.99
2018-02-09T10:19:34.399Z,99.99
2018-02-09T10:20:34.383Z,99.99
2018-02-09T10:21:34.363Z,99.99
2018-02-09T10:22:34.076Z,99.99
2018-02-09T10:23:34.321Z,99.99
2018-02-09T10:24:34.038Z,99.99
2018-02-09T10:25:34.308Z,99.99
2018-02-09T10:26:33.999Z,99.99
2018-02-09T10:27:33.985Z,99.99
2018-02-09T10:28:33.963Z,99.99
2018-02-09T10:29:34.205Z,99.99
2018-02-09T10:30:33.925Z,99.99
2018-02-09T10:31:34.168Z,99.99
2018-02-09T10:32:33.897Z,99.99
2018-02-09T10:33:34.127Z,99.99
2018-02-09T10:34:34.112Z,99.99
2018-02-09T10:35:34.096Z,99.99
2018-02-09T10:36:33.810Z,99.99
2018-02-09T10:37:34.058Z,99.99
2018-02-09T10:38:33.780Z,99.99
2018-02-09T10:39:34.015Z,99.99
2018-02-09T10:40:34.008Z,99.99
2018-02-09T10:41:33.984Z,99.99
2018-02-09T10:42:33.964Z,99.99
2018-02-09T10:43:33.949Z,99.99
2018-02-09T10:44:33.929Z,99.99
2018-02-09T10:45:33.649Z,99.99
2018-02-09T10:46:33.632Z,99.99
2018-02-09T10:47:33.884Z,99.99
2018-02-09T10:48:33.862Z,99.99
2018-02-09T10:49:33.575Z,99.99
2018-02-09T10:50:33.826Z,99.99
2018-02-09T10:51:33.542Z,99.99
2018-02-09T10:52:33.789Z,99.99
2018-02-09T10:53:33.501Z,99.99
2018-02-09T10:54:33.487Z,99.99
2018-02-09T10:55:33.467Z,99.99
2018-02-09T10:56:33.718Z,99.99
2018-02-09T10:57:33.431Z,99.99
2018-02-09T10:58:33.413Z,99.99
2018-02-09T10:59:33.660Z,99.99
2018-02-09T11:00:33.636Z,99.99
2018-02-09T11:01:33.404Z,99.99
2018-02-09T11:02:33.338Z,99.99
2018-02-09T11:03:33.316Z,99.99
2018-02-09T11:04:33.567Z,99.99
2018-02-09T11:05:33.542Z,99.99
2018-02-09T11:06:33.575Z,99.99
2018-02-09T11:07:33.503Z,99.99
2018-02-09T11:08:33.223Z,99.99
2018-02-09T11:09:33.478Z,99.99
2018-02-09T11:10:33.655Z,99.99
2018-02-09T11:11:33.167Z,99.99
2018-02-09T11:12:33.413Z,99.99
2018-02-09T11:13:33.404Z,99.99
2018-02-09T11:14:33.386Z,99.99
2018-02-09T11:15:33.100Z,99.99
2018-02-09T11:16:33.085Z,99.99
2018-02-09T11:17:33.065Z,99.99
2018-02-09T11:18:33.313Z,99.99
2018-02-09T11:19:33.295Z,99.99
2018-02-09T11:20:33.277Z,99.99
2018-02-09T11:21:33.008Z,99.99
2018-02-09T11:22:33.239Z,99.99
2018-02-09T11:23:33.280Z,99.99
2018-02-09T11:24:32.945Z,99.99
2018-02-09T11:25:32.929Z,99.99
2018-02-09T11:26:32.913Z,99.99
2018-02-09T11:27:32.894Z,99.99
2018-02-09T11:28:33.151Z,99.99
2018-02-09T11:29:32.862Z,99.99
2018-02-09T11:30:32.844Z,99.99
2018-02-09T11:31:33.092Z,99.99
2018-02-09T11:32:33.082Z,99.99
2018-02-09T11:33:33.061Z,99.99
2018-02-09T11:34:33.043Z,99.99
2018-02-09T11:35:33.029Z,99.99
2018-02-09T11:36:32.745Z,99.99
2018-02-09T11:37:32.989Z,99.99
2018-02-09T11:38:32.990Z,99.99
2018-02-09T11:39:32.695Z,99.99
2018-02-09T11:40:32.682Z,99.99
2018-02-09T11:41:32.924Z,99.99
2018-02-09T11:42:32.649Z,99.99
2018-02-09T11:43:32.950Z,99.99
2018-02-09T11:44:32.608Z,99.99
2018-02-09T11:45:32.597Z,99.99
2018-02-09T11:46:32.581Z,99.99
2018-02-09T11:47:32.824Z,99.99
2018-02-09T11:48:32.813Z,99.99
2018-02-09T11:49:32.856Z,99.99
2018-02-09T11:50:32.544Z,99.99
2018-02-09T11:51:32.756Z,99.99
2018-02-09T11:52:32.479Z,99.99
2018-02-09T11:53:32.461Z,99.99
2018-02-09T11:54:32.709Z,99.99
2018-02-09T11:55:32.703Z,99.99
2018-02-09T11:56:32.410Z,99.99
2018-02-09T11:57:32.656Z,99.99
2018-02-09T11:58:32.375Z,99.99
2018-02-09T11:59:32.620Z,99.99
2018-02-09T12:00:32.607Z,99.99
2018-02-09T12:01:32.586Z,99.99
2018-02-09T12:02:32.564Z,99.99
2018-02-09T12:03:32.284Z,99.99
2018-02-09T12:04:32.617Z,99.99
2018-02-09T12:05:32.247Z,99.99
2018-02-09T12:06:32.231Z,99.99
2018-02-09T12:07:32.473Z,99.99
2018-02-09T12:08:32.461Z,99.99
2018-02-09T12:09:32.437Z,99.99
2018-02-09T12:10:32.434Z,99.99
2018-02-09T12:11:32.404Z,99.99
2018-02-09T12:12:32.380Z,99.99
2018-02-09T12:13:32.359Z,99.99
2018-02-09T12:14:32.342Z,99.99
2018-02-09T12:15:32.329Z,99.99
2018-02-09T12:16:32.303Z,99.99
2018-02-09T12:17:32.047Z,99.99
2018-02-09T12:18:32.010Z,99.99
2018-02-09T12:19:31.990Z,99.99
2018-02-09T12:20:32.231Z,99.99
2018-02-09T12:21:31.966Z,99.99
2018-02-09T12:22:31.940Z,99.99
2018-02-09T12:23:32.186Z,99.99
2018-02-09T12:24:32.182Z,99.99
2018-02-09T12:25:31.895Z,99.99
2018-02-09T12:26:31.875Z,99.99
2018-02-09T12:27:32.118Z,99.99
2018-02-09T12:28:32.102Z,99.99
2018-02-09T12:29:32.085Z,99.99
2018-02-09T12:30:31.810Z,99.99
2018-02-09T12:31:31.793Z,99.96
2018-02-09T12:32:31.778Z,99.99
2018-02-09T12:33:31.768Z,99.99
2018-02-09T12:34:32.015Z,99.99
2018-02-09T12:35:31.741Z,99.77
2018-02-09T12:36:31.720Z,99.3
2018-02-09T12:37:31.970Z,99.99
2018-02-09T12:38:31.954Z,99.99
2018-02-09T12:39:31.940Z,99.99
2018-02-09T12:40:31.662Z,99.99
2018-02-09T12:41:31.911Z,99.99
2018-02-09T12:42:31.630Z,99.87
2018-02-09T12:43:31.616Z,98.07
2018-02-09T12:44:31.869Z,96.17
2018-02-09T12:45:31.866Z,95.69
2018-02-09T12:46:31.838Z,97.02
2018-02-09T12:47:31.824Z,95.69
2018-02-09T12:48:31.817Z,96.08
2018-02-09T12:49:31.540Z,96.17
2018-02-09T12:50:31.516Z,95.74
2018-02-09T12:51:31.780Z,94.51
2018-02-09T12:52:31.772Z,95.07